createdAt,value
2022-08-12T03:02:32.274Z,52.40
2022-08-12T03:05:03.405Z,52.30
2022-08-12T03:07:56.188Z,52.40
2022-08-12T03:10:37.027Z,52.50
2022-08-12T03:13:08.096Z,52.50
2022-08-12T03:15:36.509Z,52.60
2022-08-12T03:18:25.686Z,52.60
2022-08-12T03:20:57.896Z,52.50
2022-08-12T03:23:30.272Z,52.50
2022-08-12T03:26:01.592Z,52.60
2022-08-12T03:28:49.177Z,52.70
2022-08-12T03:31:18.373Z,52.70
2022-08-12T03:34:00.984Z,52.80
2022-08-12T03:36:33.374Z,52.80
2022-08-12T03:39:16.845Z,53.00
2022-08-12T03:41:54.959Z,53.00
2022-08-12T03:44:49.983Z,53.00
2022-08-12T03:47:40.953Z,53.40
2022-08-12T03:50:28.130Z,53.20
2022-08-12T03:53:13.779Z,53.10
2022-08-12T03:55:59.428Z,53.20
2022-08-12T03:58:45.067Z,53.30
2022-08-12T04:01:13.871Z,53.30
2022-08-12T04:03:53.937Z,52.90
2022-08-12T04:06:35.351Z,53.00
2022-08-12T04:09:15.027Z,53.00
2022-08-12T04:12:14.242Z,53.20
2022-08-12T04:14:43.052Z,53.10
2022-08-12T04:17:11.902Z,53.20
2022-08-12T04:19:39.851Z,53.10
2022-08-12T04:22:09.911Z,53.20
2022-08-12T04:24:38.017Z,53.30
2022-08-12T04:27:10.195Z,53.30
2022-08-12T04:30:29.991Z,54.00
2022-08-12T04:32:27.326Z,53.60
2022-08-12T04:34:56.011Z,53.50
2022-08-12T04:37:25.222Z,53.60
2022-08-12T04:39:53.965Z,53.70
2022-08-12T04:42:22.155Z,53.70
2022-08-12T04:44:50.024Z,53.70
2022-08-12T04:47:18.113Z,53.60
2022-08-12T04:49:49.173Z,53.70
2022-08-12T04:52:17.157Z,53.80
2022-08-12T04:54:47.609Z,53.80
2022-08-12T04:57:15.979Z,54.00
2022-08-12T04:59:47.936Z,54.10
2022-08-12T05:02:21.226Z,54.20
2022-08-12T05:04:52.017Z,54.20
2022-08-12T05:07:20.499Z,54.30
2022-08-12T05:10:01.103Z,54.30
2022-08-12T05:12:36.341Z,54.10
2022-08-12T05:15:27.528Z,54.10
2022-08-12T05:17:55.449Z,54.00
2022-08-12T05:20:25.975Z,54.00
2022-08-12T05:23:12.406Z,54.10
2022-08-12T05:25:43.577Z,54.00
2022-08-12T05:28:12.911Z,53.90
2022-08-12T05:30:42.510Z,54.20
2022-08-12T05:33:11.995Z,54.10
2022-08-12T05:35:42.980Z,54.00
2022-08-12T05:38:29.904Z,54.10
2022-08-12T05:40:59.262Z,53.90
2022-08-12T05:43:27.430Z,53.90
2022-08-12T05:45:55.376Z,54.20
2022-08-12T05:48:24.376Z,54.50
2022-08-12T05:50:52.918Z,54.80
2022-08-12T05:53:20.789Z,54.50
2022-08-12T05:55:48.674Z,54.80
2022-08-12T05:58:18.369Z,55.30
2022-08-12T06:00:46.284Z,54.70
2022-08-12T06:03:17.519Z,53.80
2022-08-12T06:05:55.704Z,54.10
2022-08-12T06:08:24.834Z,54.20
2022-08-12T06:10:53.698Z,54.30
2022-08-12T06:13:25.734Z,54.60
2022-08-12T06:16:12.322Z,54.30
2022-08-12T06:18:40.335Z,54.40
2022-08-12T06:21:09.107Z,54.60
2022-08-12T06:23:41.990Z,55.30
2022-08-12T06:26:12.857Z,54.80
2022-08-12T06:28:42.886Z,55.00
2022-08-12T06:31:26.870Z,55.90
2022-08-12T06:33:59.808Z,55.90
2022-08-12T06:36:44.239Z,54.40
2022-08-12T06:39:14.617Z,54.30
2022-08-12T06:42:04.987Z,54.50
2022-08-12T06:44:51.292Z,54.80
2022-08-12T06:47:19.687Z,54.10
2022-08-12T06:49:48.517Z,53.90
2022-08-12T06:52:17.182Z,55.10
2022-08-12T06:54:45.716Z,52.80
2022-08-12T06:57:59.725Z,52.40
2022-08-12T07:00:02.917Z,56.90
2022-08-12T07:02:38.419Z,52.90
2022-08-12T07:05:06.919Z,53.20
2022-08-12T07:07:38.828Z,54.30
2022-08-12T07:10:08.543Z,52.20
2022-08-12T07:12:36.963Z,52.00
2022-08-12T07:15:07.496Z,52.40
2022-08-12T07:17:37.467Z,51.90
2022-08-12T07:20:06.975Z,52.80
2022-08-12T07:22:34.983Z,52.70
2022-08-12T07:25:20.388Z,52.10
2022-08-12T07:27:49.382Z,54.20
2022-08-12T07:30:18.683Z,52.10
2022-08-12T07:32:49.660Z,52.20
2022-08-12T07:35:19.538Z,53.30
2022-08-12T07:37:50.138Z,51.80
2022-08-12T07:40:18.706Z,52.60
2022-08-12T07:42:47.083Z,51.50
2022-08-12T07:45:15.318Z,51.10
2022-08-12T07:47:44.817Z,53.70
2022-08-12T07:50:13.892Z,52.40
2022-08-12T07:52:44.218Z,51.50
2022-08-12T07:55:13.360Z,51.30
2022-08-12T07:57:52.010Z,51.60
2022-08-12T08:00:20.382Z,51.40
2022-08-12T08:02:50.380Z,52.70
2022-08-12T08:05:19.545Z,52.10
2022-08-12T08:07:47.882Z,52.90
2022-08-12T08:10:16.593Z,50.80
2022-08-12T08:12:58.078Z,53.00
2022-08-12T08:15:51.187Z,53.80
2022-08-12T08:18:26.687Z,51.70
2022-08-12T08:20:57.021Z,52.70
2022-08-12T08:23:46.911Z,53.10
2022-08-12T08:26:24.745Z,51.20
2022-08-12T08:28:52.998Z,52.40
2022-08-12T08:31:21.544Z,54.30
2022-08-12T08:34:05.250Z,53.70
2022-08-12T08:36:39.555Z,52.80
2022-08-12T08:39:07.827Z,52.80
2022-08-12T08:42:17.087Z,51.80
2022-08-12T08:44:42.075Z,53.30
2022-08-12T08:47:13.013Z,51.10
2022-08-12T08:49:42.476Z,53.70
2022-08-12T08:52:11.905Z,53.40
2022-08-12T08:54:40.486Z,54.00
2022-08-12T08:57:09.368Z,54.50
2022-08-12T08:59:37.504Z,52.90
2022-08-12T09:02:07.522Z,51.70
2022-08-12T09:05:12.524Z,57.20
2022-08-12T09:07:51.957Z,53.70
2022-08-12T09:10:30.972Z,52.20
2022-08-12T09:13:22.978Z,51.40
2022-08-12T09:15:56.002Z,51.80
2022-08-12T09:18:26.635Z,50.90
2022-08-12T09:21:02.142Z,53.10
2022-08-12T09:23:59.488Z,52.00
2022-08-12T09:26:22.730Z,53.20
2022-08-12T09:28:56.633Z,53.00
2022-08-12T09:32:02.682Z,54.40
2022-08-12T09:34:28.503Z,50.00
2022-08-12T09:37:03.039Z,49.40
2022-08-12T09:40:05.846Z,56.40
2022-08-12T09:43:15.112Z,52.40
2022-08-12T09:46:11.851Z,55.60
2022-08-12T09:48:35.055Z,49.90
2022-08-12T09:51:10.998Z,54.60
2022-08-12T09:54:06.018Z,53.30
2022-08-12T09:56:59.259Z,52.30
2022-08-12T10:00:15.482Z,50.40
2022-08-12T10:02:44.049Z,51.60
2022-08-12T10:05:04.299Z,51.00
2022-08-12T10:07:40.434Z,53.70
2022-08-12T10:10:24.762Z,51.60
2022-08-12T10:13:20.548Z,53.10
2022-08-12T10:16:04.795Z,54.10
2022-08-12T10:18:37.254Z,56.20
2022-08-12T10:21:23.372Z,52.70
2022-08-12T10:23:56.829Z,48.10
2022-08-12T10:26:44.760Z,47.50
2022-08-12T10:30:39.037Z,49.40
2022-08-12T10:32:43.831Z,46.90
2022-08-12T10:35:10.066Z,50.90
2022-08-12T10:38:33.324Z,47.40
2022-08-12T10:40:31.875Z,52.00
2022-08-12T10:43:18.799Z,47.60
2022-08-12T10:45:49.172Z,50.80
2022-08-12T10:48:33.369Z,48.10
2022-08-12T10:52:03.901Z,47.90
2022-08-12T10:53:52.917Z,47.80
2022-08-12T10:56:22.150Z,51.40
2022-08-12T10:58:51.989Z,52.20
2022-08-12T11:03:01.552Z,47.60
2022-08-12T11:04:23.364Z,52.30
2022-08-12T11:07:06.489Z,46.70
2022-08-12T11:10:00.444Z,49.20
2022-08-12T11:12:55.111Z,46.50
2022-08-12T11:15:32.625Z,49.00
2022-08-12T11:18:12.029Z,46.20
2022-08-12T11:20:48.999Z,43.70
2022-08-12T11:23:25.866Z,43.60
2022-08-12T11:26:07.270Z,42.90
2022-08-12T11:28:36.947Z,42.50
2022-08-12T11:31:12.155Z,42.90
2022-08-12T11:34:06.867Z,42.50
2022-08-12T11:36:32.002Z,42.20
2022-08-12T11:39:04.276Z,42.10
2022-08-12T11:41:34.547Z,41.60
2022-08-12T11:44:35.510Z,41.60
2022-08-12T11:46:53.017Z,41.80
2022-08-12T11:49:32.040Z,41.30
2022-08-12T11:52:02.722Z,41.20
2022-08-12T11:54:31.341Z,40.70
2022-08-12T11:57:00.559Z,41.20
2022-08-12T12:02:20.649Z,41.00
2022-08-12T12:04:52.962Z,41.00
2022-08-12T12:08:36.134Z,40.00
2022-08-12T12:10:12.600Z,39.70
2022-08-12T12:12:41.416Z,39.90
2022-08-12T12:15:25.470Z,39.40
2022-08-12T12:18:05.189Z,39.30
2022-08-12T12:20:35.577Z,39.80
2022-08-12T12:23:04.290Z,39.00
2022-08-12T12:26:07.012Z,38.80
2022-08-12T12:28:36.832Z,38.50
2022-08-12T12:31:15.029Z,38.80
2022-08-12T12:33:57.701Z,38.40
2022-08-12T12:36:30.101Z,38.20
2022-08-12T12:39:00.116Z,37.60
2022-08-12T12:42:40.579Z,37.40
2022-08-12T12:44:25.913Z,37.20
2022-08-12T12:47:26.076Z,37.20
2022-08-12T12:49:55.197Z,36.60
2022-08-12T12:52:26.914Z,36.40
2022-08-12T12:54:58.485Z,36.40
2022-08-12T12:57:36.201Z,36.90
2022-08-12T13:00:15.810Z,36.60
2022-08-12T13:02:46.048Z,36.00
2022-08-12T13:05:27.919Z,36.30
2022-08-12T13:08:01.075Z,36.30
2022-08-12T13:10:36.535Z,36.40
2022-08-12T13:14:07.448Z,37.00
2022-08-12T13:15:59.230Z,37.30
2022-08-12T13:18:31.422Z,37.80
2022-08-12T13:20:59.882Z,38.30
2022-08-12T13:23:36.001Z,38.70
2022-08-12T13:26:07.643Z,38.10
2022-08-12T13:28:45.629Z,37.40
2022-08-12T13:31:24.924Z,36.30
2022-08-12T13:34:33.695Z,36.10
2022-08-12T13:36:42.132Z,35.50
2022-08-12T13:39:11.790Z,35.70
2022-08-12T13:41:39.747Z,35.60
2022-08-12T13:44:10.466Z,35.40
2022-08-12T13:46:40.789Z,35.20
2022-08-12T13:49:11.507Z,34.40
2022-08-12T13:51:52.791Z,34.20
2022-08-12T13:54:23.765Z,34.00
2022-08-12T13:56:52.331Z,34.40
2022-08-12T13:59:24.491Z,34.10
2022-08-12T14:01:56.757Z,34.30
2022-08-12T14:04:24.965Z,34.20
2022-08-12T14:06:53.914Z,34.00
2022-08-12T14:09:23.089Z,33.80
2022-08-12T14:11:58.687Z,33.50
2022-08-12T14:14:31.792Z,33.30
2022-08-12T14:17:10.285Z,33.80
2022-08-12T14:20:00.622Z,33.10
2022-08-12T14:22:28.903Z,33.10
2022-08-12T14:25:01.220Z,33.30
2022-08-12T14:28:03.359Z,33.20
2022-08-12T14:30:29.031Z,33.30
2022-08-12T14:32:57.990Z,33.80
2022-08-12T14:35:26.919Z,33.80
2022-08-12T14:37:56.541Z,33.80
2022-08-12T14:40:29.612Z,33.80
2022-08-12T14:42:58.958Z,34.40
2022-08-12T14:45:44.549Z,34.60
2022-08-12T14:48:19.164Z,34.10
2022-08-12T14:51:02.821Z,33.90
2022-08-12T14:55:24.664Z,33.70
2022-08-12T14:59:57.217Z,33.60
2022-08-12T15:02:20.908Z,33.70
2022-08-12T15:04:52.233Z,33.80
2022-08-12T15:07:34.205Z,33.50
2022-08-12T15:10:09.254Z,33.30
2022-08-12T15:12:40.480Z,33.70
2022-08-12T15:15:10.527Z,34.10
2022-08-12T15:17:40.318Z,34.20
2022-08-12T15:20:33.261Z,34.30
2022-08-12T15:22:57.974Z,33.90
2022-08-12T15:25:26.036Z,33.70
2022-08-12T15:28:10.986Z,34.00
2022-08-12T15:30:45.002Z,33.70
2022-08-12T15:33:18.751Z,33.50
2022-08-12T15:35:52.230Z,33.60
2022-08-12T15:38:24.868Z,33.50
2022-08-12T15:40:55.111Z,33.90
2022-08-12T15:43:51.729Z,34.10
2022-08-12T15:46:15.434Z,34.60
2022-08-12T15:48:46.842Z,35.00
2022-08-12T15:51:58.449Z,35.30
2022-08-12T15:54:33.961Z,36.20
2022-08-12T15:57:08.272Z,36.30
2022-08-12T16:00:00.527Z,36.30
2022-08-12T16:02:26.710Z,36.70
2022-08-12T16:04:55.399Z,36.60
2022-08-12T16:07:26.027Z,37.30
2022-08-12T16:10:06.781Z,37.30
2022-08-12T16:12:43.348Z,37.40
2022-08-12T16:15:14.696Z,37.40
2022-08-12T16:18:18.402Z,37.40
2022-08-12T16:20:34.757Z,37.60
2022-08-12T16:23:26.788Z,37.80
2022-08-12T16:26:06.315Z,37.60
2022-08-12T16:28:56.371Z,38.10
2022-08-12T16:31:25.958Z,38.30
2022-08-12T16:34:00.857Z,37.90
2022-08-12T16:36:30.273Z,37.90
2022-08-12T16:39:01.308Z,38.00
2022-08-12T16:41:39.902Z,38.20
2022-08-12T16:44:08.843Z,37.60
2022-08-12T16:46:38.395Z,37.30
2022-08-12T16:49:13.067Z,37.20
2022-08-12T16:51:46.729Z,37.30
2022-08-12T16:54:16.171Z,37.50
2022-08-12T16:56:54.684Z,37.60
2022-08-12T16:59:52.847Z,38.00
2022-08-12T17:02:31.867Z,37.80
2022-08-12T17:05:04.144Z,37.90
2022-08-12T17:07:36.849Z,37.70
2022-08-12T17:10:07.221Z,38.00
2022-08-12T17:12:37.663Z,38.00
2022-08-12T17:15:21.458Z,38.20
2022-08-12T17:18:38.924Z,38.10
2022-08-12T17:20:48.902Z,37.80
2022-08-12T17:23:20.484Z,38.20
2022-08-12T17:25:51.773Z,38.40
2022-08-12T17:28:22.724Z,38.40
2022-08-12T17:30:57.331Z,38.40
2022-08-12T17:33:33.497Z,38.60
2022-08-12T17:36:05.378Z,38.50
2022-08-12T17:38:34.623Z,38.60
2022-08-12T17:41:22.235Z,38.60
2022-08-12T17:43:58.389Z,38.80
2022-08-12T17:46:33.414Z,38.90
2022-08-12T17:49:19.073Z,39.20
2022-08-12T17:52:01.951Z,39.40
2022-08-12T17:54:32.815Z,39.50
2022-08-12T17:57:02.420Z,39.60
2022-08-12T17:59:48.822Z,39.70
2022-08-12T18:02:25.475Z,39.70
2022-08-12T18:05:04.484Z,39.50
2022-08-12T18:07:35.769Z,39.50
2022-08-12T18:10:05.578Z,39.90
2022-08-12T18:12:42.399Z,39.80
2022-08-12T18:15:26.057Z,39.80
2022-08-12T18:18:16.870Z,40.00
2022-08-12T18:20:46.890Z,40.00
2022-08-12T18:23:14.805Z,40.20
2022-08-12T18:26:15.089Z,40.30
2022-08-12T18:28:48.342Z,40.20
2022-08-12T18:31:18.159Z,40.20
2022-08-12T18:33:47.671Z,40.80
2022-08-12T18:36:22.373Z,40.60
2022-08-12T18:38:55.925Z,40.40
2022-08-12T18:41:33.674Z,40.80
2022-08-12T18:44:05.165Z,40.90
2022-08-12T18:46:48.841Z,40.80
2022-08-12T18:49:29.766Z,41.20
2022-08-12T18:52:04.380Z,41.20
2022-08-12T18:54:36.261Z,41.10
2022-08-12T18:57:15.503Z,41.10
2022-08-12T19:00:01.780Z,41.30
2022-08-12T19:02:39.933Z,41.40
2022-08-12T19:05:10.439Z,41.50
2022-08-12T19:07:50.017Z,41.30
2022-08-12T19:10:29.696Z,41.60
2022-08-12T19:13:24.384Z,41.70
2022-08-12T19:15:54.396Z,41.90
2022-08-12T19:18:24.281Z,42.70
2022-08-12T19:20:52.280Z,43.40
2022-08-12T19:23:22.194Z,43.70
2022-08-12T19:26:01.134Z,43.90
2022-08-12T19:28:35.002Z,44.00
2022-08-12T19:31:56.826Z,44.10
2022-08-12T19:35:06.642Z,44.20
2022-08-12T19:37:20.383Z,44.70
2022-08-12T19:40:09.976Z,44.80
2022-08-12T19:42:44.837Z,45.20
2022-08-12T19:45:17.190Z,45.20
2022-08-12T19:47:46.590Z,45.50
2022-08-12T19:50:20.027Z,45.60
2022-08-12T19:52:53.077Z,45.90
2022-08-12T19:55:27.199Z,46.10
2022-08-12T19:58:01.414Z,46.40
2022-08-12T20:00:35.315Z,47.00
2022-08-12T20:03:07.553Z,47.10
2022-08-12T20:06:05.390Z,47.00
2022-08-12T20:08:32.978Z,47.10
2022-08-12T20:12:09.542Z,47.40
2022-08-12T20:14:01.075Z,47.50
2022-08-12T20:16:57.747Z,48.10
2022-08-12T20:19:52.838Z,47.10
2022-08-12T20:22:24.854Z,47.10
2022-08-12T20:25:01.415Z,46.80
2022-08-12T20:28:02.600Z,47.40
2022-08-12T20:30:53.076Z,47.10
2022-08-12T20:33:17.377Z,47.10
2022-08-12T20:36:13.862Z,47.20
2022-08-12T20:38:39.337Z,47.50
2022-08-12T20:41:17.820Z,47.70
2022-08-12T20:43:50.432Z,47.70
2022-08-12T20:46:19.411Z,47.90
2022-08-12T20:48:55.172Z,47.80
2022-08-12T20:51:27.575Z,47.80
2022-08-12T20:53:59.279Z,47.70
2022-08-12T20:56:34.232Z,47.40
2022-08-12T20:59:06.675Z,47.20
2022-08-12T21:01:46.902Z,47.50
2022-08-12T21:04:35.884Z,47.70
2022-08-12T21:07:09.125Z,47.70
2022-08-12T21:09:41.753Z,48.00
2022-08-12T21:12:28.596Z,48.10
2022-08-12T21:15:16.614Z,48.20
2022-08-12T21:18:01.254Z,48.50
2022-08-12T21:20:34.739Z,48.40
2022-08-12T21:23:04.290Z,48.30
2022-08-12T21:25:44.108Z,48.10
2022-08-12T21:28:12.945Z,48.10
2022-08-12T21:31:11.245Z,48.30
2022-08-12T21:33:31.623Z,48.30
2022-08-12T21:36:02.532Z,48.10
2022-08-12T21:38:34.816Z,48.30
2022-08-12T21:41:06.789Z,48.40
2022-08-12T21:43:44.521Z,48.40
2022-08-12T21:46:34.530Z,49.20
2022-08-12T21:49:05.443Z,48.70
2022-08-12T21:51:49.072Z,48.60
2022-08-12T21:54:21.670Z,49.00
2022-08-12T21:56:50.264Z,49.10
2022-08-12T21:59:19.982Z,49.10
